Portada
METAR-TAF:

METAR-TAF

Aeropuertos :

Ambon, Indonesia

latitud: 03-42S, longitud: 128-05E, altitud: 12 m

Observación

El informe se hizo hace 21 minutos, a las 01:00 UTC
Viento 8 kt del noreste, variando entre norte y este
Temperatura 33°C
Humedad 63%
Presión 1009 hPa
Visibilidad 10 km o más
Escasas nubes a una altura de 1800 ft, Cumulonimbus.
Nubes dispersas a una altura de 1900 ft

METAR: WAPP 270100Z 05008KT 010V090 9999 FEW018CB SCT019 33/25 Q1009 NOSIGRMK CB TO S?SW

Hora: 10:21 (01:21 UTC)

Pronóstico

El informe se hizo hace 2 horas y 21 minutos, a las 23:00 UTC
Pronóstico válido del 27 a las 00 UTC al 27 a las 24 UTC
Viento 10 kt del norte
Visibilidad 10 km o más
Escasas nubes a una altura de 1600 ft, Cumulonimbus.
Nubes dispersas a una altura de 1700 ft
Temporalmente
del 27 a las 03 UTC al 27 a las 07 UTC
Visibilidad: 5000 m
lluvia

TAF: WAPP 262300Z 2700/2724 36010KT 9999 FEW016CB SCT017 TEMPO 2703/2707 5000 RA

Observaciones y pronósticos meteorológicos de más de 4000 aeropuertos (mensajes METAR y TAF).

Los puntos amarillos y rojos representan las estaciones disponibles.

Ponga el ratón en el punto deseado para ver el nombre de la estación.

Haga clic para ver las observaciones y los pronósticos meteorológicos.

Para cambiar el mapa : haga clic en los botones verdes con una cruz de color negro para hacer un zoom, en el botón verde con un guión para alejar o en las flechas verdes para mapas adyacentes.


METAR-TAF: